Friday, October 24, 2014, 8:33 PM EDT

KPHF, Williamsburg International Airport

Location: Newport News, VA, United States Lat: 37.133
Local Time: 8:33 PM EDT ( 0:33 GMT) Lon: -76.5
Time Zone: US/Eastern Elev: 42 ft

Show me the last for .
Show Decoded

2014-10-24 19:54 METAR KPHF 242354Z 28004KT 10SM CLR 16/08 A2994 RMK AO2 RAB04E13 SLP137 P0000
                 60000 T01610078 10222 20156 53008 =
2014-10-24 18:54 METAR KPHF 242254Z 28003KT 10SM CLR 17/07 A2993 RMK AO2 SLP134 T01670072 =
2014-10-24 17:54 METAR KPHF 242154Z 28008KT 10SM CLR 19/06 A2992 RMK AO2 SLP131 T01890061 =
2014-10-24 16:54 METAR KPHF 242054Z 27010KT 10SM CLR 21/06 A2991 RMK AO2 SLP129 60000 T02110061
                 55005 =
2014-10-24 15:54 METAR KPHF 241954Z 31011KT 10SM CLR 22/07 A2991 RMK AO2 RAE1859 SLP129 P0000
                 T02170072 =
2014-10-24 14:54 METAR KPHF 241854Z AUTO 29011G18KT 10SM -RA CLR 21/08 A2992 RMK AO2 RAB1756
                 SLP131 P0000 T02110078 TSNO =
2014-10-24 13:54 METAR KPHF 241754Z 27008KT 10SM CLR 21/08 A2993 RMK AO2 RAE14B34E42 SLP134 P0000
                 60000 T02110083 10211 20128 58022 =
2014-10-24 12:54 METAR KPHF 241654Z 33007KT 10SM -RA CLR 20/08 A2996 RMK AO2 RAB22 SLP143 P0000
                 T02000078 =
2014-10-24 11:54 METAR KPHF 241554Z 34008KT 290V010 10SM CLR 19/08 A2999 RMK AO2 SLP153 T01890078
                 =
2014-10-24 10:54 METAR KPHF 241454Z 33012G18KT 10SM CLR 17/07 A2999 RMK AO2 SLP155 T01720072
                 50006 =
2014-10-24 09:54 METAR KPHF 241354Z 33009KT 10SM CLR 17/07 A3000 RMK AO2 SLP156 T01670067 =
2014-10-24 08:54 METAR KPHF 241254Z 32010G20KT 10SM CLR 14/07 A2999 RMK AO2 SLP154 T01390067 =
2014-10-24 07:54 METAR KPHF 241154Z 30008KT 10SM CLR 13/06 A2998 RMK AO2 SLP150 T01280061 10150
                 20122 51013 =
2014-10-24 06:54 METAR KPHF 241054Z 31007KT 10SM CLR 13/06 A2997 RMK AO2 SLP147 T01280061 =
2014-10-24 05:54 METAR KPHF 240954Z 31006KT 10SM CLR 12/06 A2995 RMK AO2 SLP143 T01220061 =
2014-10-24 04:54 METAR KPHF 240854Z 33007KT 10SM CLR 14/07 A2994 RMK AO2 SLP136 T01390067 53001 =
2014-10-24 03:54 METAR KPHF 240754Z 28007KT 10SM CLR 14/07 A2993 RMK AO2 SLP134 T01390067 =
2014-10-24 02:54 METAR KPHF 240654Z 31008KT 10SM CLR 14/07 A2992 RMK AO2 SLP132 T01390067 =
2014-10-24 01:54 METAR KPHF 240554Z 31011KT 10SM CLR 15/07 A2993 RMK AO2 SLP135 T01500072 10172
                 20150 53004 =
2014-10-24 00:54 METAR KPHF 240454Z 31008KT 10SM CLR 15/07 A2993 RMK AO2 SLP134 T01500072
                 402110122 =
2014-10-23 23:54 METAR KPHF 240354Z 31009G17KT 10SM CLR 16/07 A2992 =
2014-10-23 22:54 METAR KPHF 240254Z 30008KT 10SM CLR 16/07 A2992 RMK AO2 SLP131 T01610072 53007 =
2014-10-23 21:54 METAR KPHF 240154Z AUTO 29007KT 10SM CLR 16/08 A2991 RMK AO2 SLP128 T01610078
                 TSNO =
2014-10-23 20:54 METAR KPHF 240054Z AUTO 29006KT 10SM CLR 16/07 A2990 RMK AO2 SLP124 T01560072
                 TSNO =

Support USWX by starting your Amazon purchase here.